Shoreacres, Texas
Current Conditions -  °F | °C
As of 6:50 PM on Sunday 25 Jan 2015 (Local Time) from KEFD Reporting Station
Broken Clouds Broken Clouds  
Wind Chill: 63°   Ceiling: 25000
Heat Index: 63°   Visibility: 10mi
Dew Point: 39°   Wind: 7mph
Humidity: 42%   Direction: 270°W
Pressure: 30.06"   Gusts: NA
Location:  29.6785°N, 95.0483°W
Report Text: KEFD 260050Z 27006KT 10SM BKN250 17/04 A3006
Loading
Personal Weather Stations






























Interactive Weather Map New forecast layout! Learn more

10-Day Weather Forecast

Advertisements
Track Severe Weather on mobile